Time;durP1;ratioP1;P1;durP2;ratioP2;P2;SDS_P1;SDS_P2;PMS_P1;PMS_P2;Temp;Humidity;BMP_temperature;BMP_pressure;BME280_temperature;BME280_humidity;BME280_pressure;Samples;Min_cycle;Max_cycle;Signal;HPM_P1;HPM_P2
2023/05/06 00:00:27;;;;;;;;;;;;;;;20.54;45.29;95729.47;10253250;28;1914;-66
2023/05/06 00:05:27;;;;;;;;;;;;;;;20.54;45.48;95734.72;10248446;28;1979;-66
2023/05/06 00:10:27;;;;;;;;;;;;;;;20.54;45.67;95726.81;10245619;28;1930;-66
2023/05/06 00:15:28;;;;;;;;;;;;;;;20.52;45.54;95718.41;10239896;28;2052;-68
2023/05/06 00:20:28;;;;;;;;;;;;;;;20.55;45.94;95711.78;10235892;28;5107;-68
2023/05/06 00:25:28;;;;;;;;;;;;;;;20.56;45.96;95716.00;10234787;28;1976;-67
2023/05/06 00:30:30;;;;;;;;;;;;;;;20.56;45.92;95716.81;10231764;28;2107;-68
2023/05/06 00:35:30;;;;;;;;;;;;;;;20.56;45.95;95708.91;10232852;28;2334;-68
2023/05/06 00:40:30;;;;;;;;;;;;;;;20.56;45.88;95706.28;10237479;28;2052;-68
2023/05/06 00:45:30;;;;;;;;;;;;;;;20.56;45.65;95694.94;10248486;28;1910;-69
2023/05/06 00:50:32;;;;;;;;;;;;;;;20.57;45.73;95699.13;10230273;28;2278;-68
2023/05/06 00:55:32;;;;;;;;;;;;;;;20.56;45.88;95706.28;10231266;28;2102;-68
2023/05/06 01:00:33;;;;;;;;;;;;;;;20.55;45.78;95699.41;10237691;28;2049;-67
2023/05/06 01:05:34;;;;;;;;;;;;;;;20.55;45.54;95694.16;10237785;28;1988;-68
2023/05/06 01:10:43;;;;;;;;;;;;;;;20.55;45.77;95696.78;10231014;28;2061;-68
2023/05/06 01:15:44;;;;;;;;;;;;;;;20.56;45.56;95693.09;10242361;28;2175;-68
2023/05/06 01:20:46;;;;;;;;;;;;;;;20.55;45.85;95691.53;10213502;28;5123;-67
2023/05/06 01:25:46;;;;;;;;;;;;;;;20.55;45.77;95693.34;10232439;28;2178;-68
2023/05/06 01:30:46;;;;;;;;;;;;;;;20.54;45.78;95687.31;10240967;28;2017;-67
2023/05/06 01:36:06;;;;;;;;;;;;;;;20.53;45.63;95691.00;10246107;28;2277;-68
2023/05/06 01:41:06;;;;;;;;;;;;;;;20.54;45.60;95692.59;10239927;28;2243;-68
2023/05/06 01:46:06;;;;;;;;;;;;;;;20.54;45.65;95695.22;10236387;28;2140;-67
2023/05/06 01:51:07;;;;;;;;;;;;;;;20.54;45.64;95699.69;10235708;28;2096;-67
2023/05/06 01:56:07;;;;;;;;;;;;;;;20.53;45.38;95691.00;10239751;28;2278;-68
2023/05/06 02:01:07;;;;;;;;;;;;;;;20.52;45.57;95694.72;10238470;28;2143;-67
2023/05/06 02:06:07;;;;;;;;;;;;;;;20.52;45.37;95702.63;10235395;28;1909;-68
2023/05/06 02:11:08;;;;;;;;;;;;;;;20.52;45.57;95691.28;10240777;28;2199;-67
2023/05/06 02:16:08;;;;;;;;;;;;;;;20.52;45.48;95692.09;10239824;28;1944;-68
2023/05/06 02:21:08;;;;;;;;;;;;;;;20.52;45.45;95694.72;10236588;28;5125;-68
2023/05/06 02:26:09;;;;;;;;;;;;;;;20.51;45.18;95698.41;10253593;28;2060;-68
2023/05/06 02:31:11;;;;;;;;;;;;;;;20.52;45.43;95697.34;10257901;28;1940;-68
2023/05/06 02:36:12;;;;;;;;;;;;;;;20.51;45.43;95706.28;10258849;28;2302;-68
2023/05/06 02:41:12;;;;;;;;;;;;;;;20.52;45.35;95701.81;10244144;28;1881;-68
2023/05/06 02:46:12;;;;;;;;;;;;;;;20.51;45.38;95697.59;10234917;28;1907;-68
2023/05/06 02:51:13;;;;;;;;;;;;;;;20.51;45.24;95693.13;10238174;28;1907;-68
2023/05/06 02:56:13;;;;;;;;;;;;;;;20.50;45.34;95681.03;10235101;28;1865;-69
2023/05/06 03:01:13;;;;;;;;;;;;;;;20.51;45.11;95679.16;10236182;28;1875;-68
2023/05/06 03:06:13;;;;;;;;;;;;;;;20.50;45.36;95675.78;10233778;28;2108;-67
2023/05/06 03:11:14;;;;;;;;;;;;;;;20.51;45.31;95681.81;10237099;28;1957;-67
2023/05/06 03:16:14;;;;;;;;;;;;;;;20.50;45.26;95678.41;10236642;28;2123;-68
2023/05/06 03:21:15;;;;;;;;;;;;;;;20.50;45.41;95670.50;10239380;28;5126;-68
2023/05/06 03:26:15;;;;;;;;;;;;;;;20.50;45.22;95672.34;10235858;28;1770;-68
2023/05/06 03:31:15;;;;;;;;;;;;;;;20.49;45.08;95671.56;10234200;28;8316;-67
2023/05/06 03:36:15;;;;;;;;;;;;;;;20.50;45.23;95672.34;10234517;28;8231;-67
2023/05/06 03:41:17;;;;;;;;;;;;;;;20.49;45.01;95670.75;10240261;28;8277;-68
2023/05/06 03:46:17;;;;;;;;;;;;;;;20.49;45.21;95674.19;10236577;28;2134;-68
2023/05/06 03:51:17;;;;;;;;;;;;;;;20.49;45.22;95668.91;10239201;28;7964;-68
2023/05/06 03:56:17;;;;;;;;;;;;;;;20.48;45.22;95667.38;10233453;28;2014;-68
2023/05/06 04:01:18;;;;;;;;;;;;;;;20.48;45.19;95667.38;10236942;28;1935;-67
2023/05/06 04:06:18;;;;;;;;;;;;;;;20.48;45.19;95674.47;10229835;28;8210;-67
2023/05/06 04:11:18;;;;;;;;;;;;;;;20.49;44.90;95662.84;10239666;28;2093;-67
2023/05/06 04:16:18;;;;;;;;;;;;;;;20.50;45.10;95667.06;10234359;28;1884;-68
2023/05/06 04:21:19;;;;;;;;;;;;;;;20.53;44.95;95684.94;10222346;28;1895;-68
2023/05/06 04:26:19;;;;;;;;;;;;;;;20.55;44.80;95682.81;10230661;28;2005;-68
2023/05/06 04:31:19;;;;;;;;;;;;;;;20.57;44.89;95692.03;10231240;28;1931;-69
2023/05/06 04:36:20;;;;;;;;;;;;;;;20.59;44.61;95703.06;10234365;28;1828;-67
2023/05/06 04:41:21;;;;;;;;;;;;;;;20.61;45.02;95700.94;10234040;28;8601;-68
2023/05/06 04:46:22;;;;;;;;;;;;;;;20.64;44.79;95710.16;10235098;28;1899;-67
2023/05/06 04:51:22;;;;;;;;;;;;;;;20.66;44.67;95722.00;10236251;28;2042;-68
2023/05/06 04:56:23;;;;;;;;;;;;;;;20.69;44.60;95724.06;10215677;28;1896;-68
2023/05/06 05:01:23;;;;;;;;;;;;;;;20.70;44.68;95723.03;10234852;28;1813;-68
2023/05/06 05:06:23;;;;;;;;;;;;;;;20.71;44.42;95727.22;10232442;28;1943;-68
2023/05/06 05:11:24;;;;;;;;;;;;;;;20.72;44.70;95736.72;10231220;28;2008;-67
2023/05/06 05:16:24;;;;;;;;;;;;;;;20.73;44.39;95735.63;10237099;28;1931;-68
2023/05/06 05:21:24;;;;;;;;;;;;;;;20.74;44.46;95734.59;10229499;28;1935;-67
2023/05/06 05:26:24;;;;;;;;;;;;;;;20.75;44.41;95735.38;10230609;28;2190;-67
2023/05/06 05:31:25;;;;;;;;;;;;;;;20.74;44.56;95733.78;10231710;28;1961;-67
2023/05/06 05:36:26;;;;;;;;;;;;;;;20.74;44.56;95734.59;10239500;28;2135;-68
2023/05/06 05:41:26;;;;;;;;;;;;;;;20.74;44.36;95741.69;10234576;28;6160;-68
2023/05/06 05:46:26;;;;;;;;;;;;;;;20.73;44.55;95743.53;10233933;28;2052;-67
2023/05/06 05:51:27;;;;;;;;;;;;;;;20.75;44.47;95746.69;10224554;28;1979;-68
2023/05/06 05:56:27;;;;;;;;;;;;;;;20.75;44.57;95740.66;10230561;28;1907;-68
2023/05/06 06:01:27;;;;;;;;;;;;;;;20.73;44.45;95748.03;10231833;28;2039;-68
2023/05/06 06:06:28;;;;;;;;;;;;;;;20.72;44.29;95749.09;10235155;28;1988;-68
2023/05/06 06:11:28;;;;;;;;;;;;;;;20.72;44.49;95749.88;10230457;28;2004;-68
2023/05/06 06:16:28;;;;;;;;;;;;;;;20.71;44.29;95750.91;10237334;28;2012;-68
2023/05/06 06:21:29;;;;;;;;;;;;;;;20.71;44.25;95758.06;10236556;28;1942;-67
2023/05/06 06:26:29;;;;;;;;;;;;;;;20.70;44.53;95759.91;10242339;28;1920;-68
2023/05/06 06:31:29;;;;;;;;;;;;;;;20.70;44.52;95773.06;10233896;28;1931;-67
2023/05/06 06:36:29;;;;;;;;;;;;;;;20.70;44.29;95774.91;10236433;28;2187;-68
2023/05/06 06:41:30;;;;;;;;;;;;;;;20.70;44.51;95767.81;10235702;28;5214;-68
2023/05/06 06:46:30;;;;;;;;;;;;;;;20.69;44.42;95776.75;10240426;28;1836;-68
2023/05/06 06:51:31;;;;;;;;;;;;;;;20.69;44.25;95782.00;10235201;28;1977;-68
2023/05/06 06:56:31;;;;;;;;;;;;;;;20.68;44.41;95788.38;10239678;28;2022;-68
2023/05/06 07:01:31;;;;;;;;;;;;;;;20.68;44.61;95792.84;10248653;28;1809;-67
2023/05/06 07:06:31;;;;;;;;;;;;;;;20.67;44.45;95792.03;10236716;28;1895;-68
2023/05/06 07:11:32;;;;;;;;;;;;;;;20.68;44.37;95790.19;10223821;28;1908;-68
2023/05/06 07:16:32;;;;;;;;;;;;;;;20.67;44.43;95792.03;10237116;28;2044;-67
2023/05/06 07:21:32;;;;;;;;;;;;;;;20.65;44.44;95794.16;10237077;28;1938;-68
2023/05/06 07:26:36;;;;;;;;;;;;;;;20.66;44.49;95793.13;10240277;28;1931;-67
2023/05/06 07:31:36;;;;;;;;;;;;;;;20.65;44.54;95783.63;10239027;28;2041;-68
2023/05/06 07:36:39;;;;;;;;;;;;;;;20.65;44.70;95785.50;10238351;28;1990;-68
2023/05/06 07:41:39;;;;;;;;;;;;;;;20.66;44.72;95784.41;10233815;28;5143;-68
2023/05/06 07:46:40;;;;;;;;;;;;;;;20.65;44.54;95788.91;10226890;28;1941;-67
2023/05/06 07:51:41;;;;;;;;;;;;;;;20.66;44.55;95797.59;10238524;28;2043;-68
2023/05/06 07:56:42;;;;;;;;;;;;;;;20.64;44.61;95803.13;10236027;28;1964;-68
2023/05/06 08:01:43;;;;;;;;;;;;;;;20.66;44.62;95805.50;10241758;28;1860;-68
2023/05/06 08:06:43;;;;;;;;;;;;;;;20.65;44.80;95815.22;10236810;28;1947;-68
2023/05/06 08:11:43;;;;;;;;;;;;;;;20.65;44.86;95819.72;10249554;28;1972;-67
2023/05/06 08:16:44;;;;;;;;;;;;;;;20.65;44.68;95825.00;10236400;28;1948;-67
2023/05/06 08:21:44;;;;;;;;;;;;;;;20.64;44.68;95824.22;10214162;28;1959;-67
2023/05/06 08:26:44;;;;;;;;;;;;;;;20.64;44.90;95821.56;10245966;28;2064;-67
2023/05/06 08:31:45;;;;;;;;;;;;;;;20.64;44.98;95826.03;10250360;28;1997;-68
2023/05/06 08:36:46;;;;;;;;;;;;;;;20.65;44.96;95825.78;10250786;28;1906;-68
2023/05/06 08:41:47;;;;;;;;;;;;;;;20.65;44.97;95830.28;10222966;28;5189;-68
2023/05/06 08:46:47;;;;;;;;;;;;;;;20.65;45.02;95825.78;10248518;28;1874;-68
2023/05/06 08:51:48;;;;;;;;;;;;;;;20.65;45.09;95833.66;10244188;28;1972;-67
2023/05/06 08:56:51;;;;;;;;;;;;;;;20.66;45.40;95826.56;10230665;28;1877;-67
2023/05/06 09:01:52;;;;;;;;;;;;;;;20.66;45.42;95818.66;10232198;28;1966;-67
2023/05/06 09:06:52;;;;;;;;;;;;;;;20.66;45.40;95822.09;10219863;28;1981;-67
2023/05/06 09:11:56;;;;;;;;;;;;;;;20.70;45.60;95817.06;10230468;28;1966;-66
2023/05/06 09:16:56;;;;;;;;;;;;;;;20.74;46.11;95823.34;10238243;28;1985;-62
2023/05/06 09:21:56;;;;;;;;;;;;;;;20.78;46.64;95819.91;10232295;28;2112;-65
2023/05/06 09:26:56;;;;;;;;;;;;;;;20.79;47.00;95824.09;10229633;28;2017;-64
2023/05/06 09:31:57;;;;;;;;;;;;;;;20.82;47.07;95818.31;10235370;28;1923;-64
2023/05/06 09:36:57;;;;;;;;;;;;;;;20.86;47.16;95826.44;10232454;28;1960;-65
2023/05/06 09:41:58;;;;;;;;;;;;;;;20.84;46.95;95821.44;10231775;28;5157;-66
2023/05/06 09:46:58;;;;;;;;;;;;;;;20.83;47.28;95811.97;10225109;28;1952;-65
2023/05/06 09:51:59;;;;;;;;;;;;;;;20.84;47.10;95818.81;10236177;28;1951;-63
2023/05/06 09:56:59;;;;;;;;;;;;;;;20.82;47.37;95810.41;10239491;28;1915;-65
2023/05/06 10:02:00;;;;;;;;;;;;;;;20.84;47.21;95816.19;10237956;28;1871;-64
2023/05/06 10:07:00;;;;;;;;;;;;;;;20.86;47.49;95808.78;10238733;28;2017;-63
2023/05/06 10:12:01;;;;;;;;;;;;;;;20.86;47.12;95808.78;10248528;28;1910;-63
2023/05/06 10:17:01;;;;;;;;;;;;;;;20.88;47.51;95806.66;10242532;28;2264;-62
2023/05/06 10:22:05;;;;;;;;;;;;;;;20.88;47.46;95804.03;10253420;28;1892;-64
2023/05/06 10:27:06;;;;;;;;;;;;;;;20.89;47.55;95805.63;10250799;28;1896;-64
2023/05/06 10:32:06;;;;;;;;;;;;;;;20.90;47.81;95796.63;10243728;28;1906;-64
2023/05/06 10:37:06;;;;;;;;;;;;;;;20.91;47.67;95789.53;10251071;28;1891;-64
2023/05/06 10:42:08;;;;;;;;;;;;;;;20.91;47.78;95782.41;10242836;28;4892;-64
2023/05/06 10:47:09;;;;;;;;;;;;;;;20.92;47.89;95777.91;10243599;28;1930;-64
2023/05/06 10:52:13;;;;;;;;;;;;;;;20.91;47.60;95761.34;10246094;28;1907;-64
2023/05/06 10:57:13;;;;;;;;;;;;;;;20.94;47.56;95750.22;10239257;28;1962;-64
2023/05/06 11:02:13;;;;;;;;;;;;;;;20.93;47.78;95761.06;10255771;28;1918;-64
2023/05/06 11:07:14;;;;;;;;;;;;;;;20.92;47.88;95757.63;10265900;28;1485;-64
2023/05/06 11:12:15;;;;;;;;;;;;;;;20.92;47.54;95744.44;10265462;28;1973;-64
2023/05/06 11:17:28;;;;;;;;;;;;;;;20.92;47.58;95736.53;10258824;28;2284;-64
2023/05/06 11:22:38;;;;;;;;;;;;;;;20.92;47.70;95744.44;10252180;28;1578;-64
2023/05/06 11:27:38;;;;;;;;;;;;;;;20.94;47.93;95744.16;10254889;28;1504;-64
2023/05/06 11:32:38;;;;;;;;;;;;;;;20.94;48.06;95744.97;10244015;28;1984;-63
2023/05/06 11:37:39;;;;;;;;;;;;;;;20.94;47.84;95744.97;10239854;28;1735;-64
2023/05/06 11:42:39;;;;;;;;;;;;;;;20.93;47.51;95748.69;10249032;28;5158;-64
2023/05/06 11:47:42;;;;;;;;;;;;;;;20.93;47.64;95742.63;10245402;28;1446;-64
2023/05/06 11:52:42;;;;;;;;;;;;;;;20.92;47.68;95741.81;10249610;28;1906;-64
2023/05/06 11:57:43;;;;;;;;;;;;;;;20.95;47.50;95729.94;10235502;28;1945;-64
2023/05/06 12:02:43;;;;;;;;;;;;;;;20.95;47.30;95735.22;10228935;28;1803;-63
2023/05/06 12:07:44;;;;;;;;;;;;;;;20.94;47.32;95725.72;10239421;28;1553;-63
2023/05/06 12:12:44;;;;;;;;;;;;;;;20.95;47.41;95732.59;10222850;28;2002;-64
2023/05/06 12:17:44;;;;;;;;;;;;;;;20.95;47.26;95730.75;10231201;28;2056;-63
2023/05/06 12:22:45;;;;;;;;;;;;;;;20.95;47.15;95717.56;10228976;28;1920;-63
2023/05/06 12:27:45;;;;;;;;;;;;;;;20.95;47.34;95720.19;10218179;28;1986;-63
2023/05/06 12:32:57;;;;;;;;;;;;;;;20.97;47.22;95722.56;10234795;28;2017;-63
2023/05/06 12:38:10;;;;;;;;;;;;;;;20.97;47.12;95717.28;10228173;28;2055;-63
2023/05/06 12:43:11;;;;;;;;;;;;;;;20.94;46.97;95723.88;10234330;28;5157;-63
2023/05/06 12:48:14;;;;;;;;;;;;;;;20.97;46.99;95718.06;10233592;28;1984;-63
2023/05/06 12:53:14;;;;;;;;;;;;;;;20.96;46.89;95707.78;10247405;28;1985;-64
2023/05/06 12:58:15;;;;;;;;;;;;;;;20.92;46.27;95709.41;10252871;28;1983;-63
2023/05/06 13:03:16;;;;;;;;;;;;;;;20.84;44.03;95708.16;10245769;28;1887;-63
2023/05/06 13:08:16;;;;;;;;;;;;;;;20.78;43.99;95697.94;10231618;28;2095;-64
2023/05/06 13:13:16;;;;;;;;;;;;;;;20.75;44.42;95695.88;10234934;28;1987;-63
2023/05/06 13:18:17;;;;;;;;;;;;;;;20.71;44.35;95685.06;10246799;28;1887;-63
2023/05/06 13:23:18;;;;;;;;;;;;;;;20.69;44.55;95678.53;10238579;28;1896;-63
2023/05/06 13:28:18;;;;;;;;;;;;;;;20.71;44.44;95671.13;10244384;28;1857;-64
2023/05/06 13:33:18;;;;;;;;;;;;;;;20.69;44.88;95668.75;10233430;28;2059;-64
2023/05/06 13:38:19;;;;;;;;;;;;;;;20.70;44.48;95665.06;10223201;28;1938;-63
2023/05/06 13:43:19;;;;;;;;;;;;;;;20.72;44.13;95668.22;10248107;28;5396;-64
2023/05/06 13:48:19;;;;;;;;;;;;;;;20.72;44.30;95668.22;10236934;28;1856;-64
2023/05/06 13:53:20;;;;;;;;;;;;;;;20.77;44.18;95657.63;10231778;28;2029;-64
2023/05/06 13:58:20;;;;;;;;;;;;;;;20.81;44.23;95655.25;10234927;28;1853;-64
2023/05/06 14:03:20;;;;;;;;;;;;;;;20.84;43.98;95649.41;10236269;28;8036;-64
2023/05/06 14:08:21;;;;;;;;;;;;;;;20.83;43.57;95643.38;10215437;28;8158;-65
2023/05/06 14:13:21;;;;;;;;;;;;;;;20.89;43.80;95642.25;10225224;28;8371;-64
2023/05/06 14:18:21;;;;;;;;;;;;;;;20.94;43.71;95650.09;10223834;28;8241;-67
2023/05/06 14:23:22;;;;;;;;;;;;;;;20.97;43.61;95641.66;10235913;28;5238;-64
2023/05/06 14:28:22;;;;;;;;;;;;;;;21.01;43.42;95637.41;10240680;28;8120;-64
2023/05/06 14:33:22;;;;;;;;;;;;;;;20.99;42.73;95629.00;10236552;28;8052;-64
2023/05/06 14:38:23;;;;;;;;;;;;;;;21.03;43.32;95630.03;10238622;28;1848;-64
2023/05/06 14:43:23;;;;;;;;;;;;;;;21.08;43.75;95623.94;10237928;28;1895;-64
2023/05/06 14:48:24;;;;;;;;;;;;;;;21.14;43.66;95629.91;10240816;28;1872;-64
2023/05/06 14:53:24;;;;;;;;;;;;;;;21.18;43.66;95623.03;10237714;28;8134;-62
2023/05/06 14:58:24;;;;;;;;;;;;;;;21.22;44.07;95624.81;10224600;28;1981;-64
2023/05/06 15:03:24;;;;;;;;;;;;;;;21.26;43.95;95619.78;10230831;28;2099;-64
2023/05/06 15:08:25;;;;;;;;;;;;;;;21.29;44.02;95621.88;10235019;28;2040;-63
2023/05/06 15:13:25;;;;;;;;;;;;;;;21.32;44.00;95618.66;10235551;28;2068;-66
2023/05/06 15:18:25;;;;;;;;;;;;;;;21.35;44.56;95612.81;10234060;28;2087;-65
2023/05/06 15:23:26;;;;;;;;;;;;;;;21.37;44.63;95615.97;10226715;28;2120;-64
2023/05/06 15:28:26;;;;;;;;;;;;;;;21.38;44.60;95617.53;10237071;28;8335;-63
2023/05/06 15:33:26;;;;;;;;;;;;;;;21.37;45.07;95611.47;10218172;28;1965;-64
2023/05/06 15:38:27;;;;;;;;;;;;;;;21.38;44.95;95620.16;10236457;28;1755;-67
2023/05/06 15:43:27;;;;;;;;;;;;;;;21.39;45.23;95627.78;10250779;28;1680;-66
2023/05/06 15:48:28;;;;;;;;;;;;;;;21.38;45.28;95626.22;10230668;28;1521;-65
2023/05/06 15:53:28;;;;;;;;;;;;;;;21.39;45.50;95625.16;10244538;28;1911;-65
2023/05/06 15:58:28;;;;;;;;;;;;;;;21.42;45.53;95621.97;10241647;28;1449;-62
2023/05/06 16:03:29;;;;;;;;;;;;;;;21.41;45.48;95617.72;10224919;28;1547;-61
2023/05/06 16:08:29;;;;;;;;;;;;;;;21.39;45.59;95617.22;10229916;28;1347;-62
2023/05/06 16:13:30;;;;;;;;;;;;;;;21.39;45.78;95619.09;10249109;28;1894;-62
2023/05/06 16:18:30;;;;;;;;;;;;;;;21.38;45.75;95622.78;10241570;28;1666;-62
2023/05/06 16:23:30;;;;;;;;;;;;;;;21.37;45.81;95608.81;10249914;28;2012;-62
2023/05/06 16:28:31;;;;;;;;;;;;;;;21.38;45.59;95615.69;10244656;28;5223;-62
2023/05/06 16:33:31;;;;;;;;;;;;;;;21.38;45.85;95615.69;10248624;28;1906;-62
2023/05/06 16:38:31;;;;;;;;;;;;;;;21.40;46.03;95610.13;10238793;28;1421;-62
2023/05/06 16:43:31;;;;;;;;;;;;;;;21.38;45.90;95610.41;10252109;28;1360;-61
2023/05/06 16:48:32;;;;;;;;;;;;;;;21.38;46.15;95607.78;10248023;28;1513;-61
2023/05/06 16:53:32;;;;;;;;;;;;;;;21.38;46.11;95615.69;10248345;28;1978;-61
2023/05/06 16:58:32;;;;;;;;;;;;;;;21.38;46.36;95612.25;10245577;28;1473;-61
2023/05/06 17:03:35;;;;;;;;;;;;;;;21.38;46.35;95609.59;10247332;28;1336;-61
2023/05/06 17:08:36;;;;;;;;;;;;;;;21.37;46.35;95605.41;10233933;28;1611;-61
2023/05/06 17:13:36;;;;;;;;;;;;;;;21.36;46.28;95602.00;10241355;28;1914;-60
2023/05/06 17:18:36;;;;;;;;;;;;;;;21.37;46.20;95603.53;10237134;28;2100;-61
2023/05/06 17:23:37;;;;;;;;;;;;;;;21.36;46.33;95598.56;10252300;28;1477;-61
2023/05/06 17:28:37;;;;;;;;;;;;;;;21.36;46.36;95598.56;10225104;28;5179;-61
2023/05/06 17:33:38;;;;;;;;;;;;;;;21.36;46.23;95598.56;10244420;28;1978;-61
2023/05/06 17:38:38;;;;;;;;;;;;;;;21.34;46.35;95596.22;10242127;28;1458;-60
2023/05/06 17:43:39;;;;;;;;;;;;;;;21.34;46.36;95600.69;10244134;28;1296;-61
2023/05/06 17:48:39;;;;;;;;;;;;;;;21.34;46.29;95605.97;10257154;28;1784;-60
2023/05/06 17:53:39;;;;;;;;;;;;;;;21.35;46.17;95613.59;10244651;28;1974;-60
2023/05/06 17:58:40;;;;;;;;;;;;;;;21.35;46.52;95615.47;10243103;28;1493;-61
2023/05/06 18:03:42;;;;;;;;;;;;;;;21.36;46.50;95622.28;10243514;28;1502;-60
2023/05/06 18:08:43;;;;;;;;;;;;;;;21.35;46.48;95612.81;10238724;28;1445;-61
2023/05/06 18:13:43;;;;;;;;;;;;;;;21.36;47.20;95609.09;10244700;28;2049;-60
2023/05/06 18:18:44;;;;;;;;;;;;;;;21.36;47.14;95619.66;10244607;28;1799;-60
2023/05/06 18:23:44;;;;;;;;;;;;;;;21.35;47.27;95624.13;10251627;28;1501;-60
2023/05/06 18:28:44;;;;;;;;;;;;;;;21.37;47.28;95626.50;10244214;28;5158;-60
2023/05/06 18:33:45;;;;;;;;;;;;;;;21.36;47.29;95620.44;10248272;28;1975;-60
2023/05/06 18:38:45;;;;;;;;;;;;;;;21.37;47.19;95626.50;10242907;28;1516;-62
2023/05/06 18:43:45;;;;;;;;;;;;;;;21.38;47.52;95626.22;10241750;28;1489;-61
2023/05/06 18:48:46;;;;;;;;;;;;;;;21.39;47.40;95632.28;10241609;28;1532;-61
2023/05/06 18:53:46;;;;;;;;;;;;;;;21.39;47.19;95640.19;10241066;28;1914;-61
2023/05/06 18:58:46;;;;;;;;;;;;;;;21.41;47.20;95635.44;10239096;28;1493;-60
2023/05/06 19:03:47;;;;;;;;;;;;;;;21.42;47.18;95636.97;10235670;29;1509;-61
2023/05/06 19:08:47;;;;;;;;;;;;;;;21.41;47.12;95646.75;10236320;28;3147;-61
2023/05/06 19:13:48;;;;;;;;;;;;;;;21.42;47.10;95650.16;10251476;28;3078;-61
2023/05/06 19:18:48;;;;;;;;;;;;;;;21.42;47.33;95648.31;10243041;28;2625;-61
2023/05/06 19:23:48;;;;;;;;;;;;;;;21.41;46.98;95651.25;10247271;28;2668;-61
2023/05/06 19:28:49;;;;;;;;;;;;;;;21.41;47.10;95644.09;10247176;28;5090;-61
2023/05/06 19:33:49;;;;;;;;;;;;;;;21.41;47.19;95643.34;10248880;28;1904;-61
2023/05/06 19:38:49;;;;;;;;;;;;;;;21.41;47.25;95644.09;10248813;28;1544;-61
2023/05/06 19:43:50;;;;;;;;;;;;;;;21.43;47.04;95643.84;10251324;28;1736;-61
2023/05/06 19:48:50;;;;;;;;;;;;;;;21.43;46.96;95652.53;10233464;28;2816;-61
2023/05/06 19:53:50;;;;;;;;;;;;;;;21.41;47.11;95657.28;10249262;28;1910;-61
2023/05/06 19:58:51;;;;;;;;;;;;;;;21.42;46.94;95652.81;10245642;28;1322;-61
2023/05/06 20:03:51;;;;;;;;;;;;;;;21.41;47.00;95645.97;10247099;28;1430;-61
2023/05/06 20:08:51;;;;;;;;;;;;;;;21.42;47.04;95642.25;10240980;28;2040;-61
2023/05/06 20:13:51;;;;;;;;;;;;;;;21.41;46.85;95651.25;10247856;28;1910;-61
2023/05/06 20:18:52;;;;;;;;;;;;;;;21.40;46.95;95639.91;10241303;28;1490;-61
2023/05/06 20:23:52;;;;;;;;;;;;;;;21.36;45.79;95643.38;10247364;28;1462;-61
2023/05/06 20:28:53;;;;;;;;;;;;;;;21.34;46.70;95640.25;10235910;28;5466;-62
2023/05/06 20:33:53;;;;;;;;;;;;;;;21.35;47.07;95639.97;10232926;28;1911;-62
2023/05/06 20:38:53;;;;;;;;;;;;;;;21.33;46.83;95641.31;10242460;28;1933;-62
2023/05/06 20:43:55;;;;;;;;;;;;;;;21.33;47.00;95641.31;10239970;28;1829;-62
2023/05/06 20:48:56;;;;;;;;;;;;;;;21.31;47.04;95632.91;10241577;28;3094;-61
2023/05/06 20:53:56;;;;;;;;;;;;;;;21.31;46.71;95632.91;10246771;28;1931;-62
2023/05/06 20:58:56;;;;;;;;;;;;;;;21.29;46.82;95635.03;10245323;28;1966;-62
2023/05/06 21:03:57;;;;;;;;;;;;;;;21.28;46.79;95644.00;10248241;28;2032;-62
2023/05/06 21:08:58;;;;;;;;;;;;;;;21.28;46.63;95641.38;10238131;28;1881;-62
2023/05/06 21:13:58;;;;;;;;;;;;;;;21.25;46.99;95634.00;10234543;28;2051;-61
2023/05/06 21:18:58;;;;;;;;;;;;;;;21.24;46.86;95632.44;10232984;28;1981;-62
2023/05/06 21:23:58;;;;;;;;;;;;;;;21.24;46.95;95632.44;10247569;28;2127;-62
2023/05/06 21:28:59;;;;;;;;;;;;;;;21.21;46.73;95644.34;10245470;28;5196;-62
2023/05/06 21:33:59;;;;;;;;;;;;;;;21.21;46.66;95633.78;10231337;28;2134;-62
2023/05/06 21:39:02;;;;;;;;;;;;;;;21.20;46.85;95631.44;10242765;28;1969;-62
2023/05/06 21:44:03;;;;;;;;;;;;;;;21.20;47.00;95634.06;10238709;28;1976;-62
2023/05/06 21:49:03;;;;;;;;;;;;;;;21.20;46.80;95632.22;10249618;28;1981;-62
2023/05/06 21:54:03;;;;;;;;;;;;;;;21.18;46.83;95636.22;10225427;28;2073;-62
2023/05/06 21:59:05;;;;;;;;;;;;;;;21.18;46.61;95638.84;10245250;28;1985;-61
2023/05/06 22:04:09;;;;;;;;;;;;;;;21.17;46.76;95647.78;10257734;28;1493;-62
2023/05/06 22:09:10;;;;;;;;;;;;;;;21.16;46.70;95641.75;10251738;28;1597;-62
2023/05/06 22:14:11;;;;;;;;;;;;;;;21.17;46.49;95647.78;10247572;28;2181;-62
2023/05/06 22:19:13;;;;;;;;;;;;;;;21.16;46.46;95644.41;10258647;28;1868;-62
2023/05/06 22:24:13;;;;;;;;;;;;;;;21.15;46.51;95644.66;10234244;28;5039;-62
2023/05/06 22:29:13;;;;;;;;;;;;;;;21.15;46.61;95634.13;10247394;28;2047;-62
2023/05/06 22:34:13;;;;;;;;;;;;;;;21.14;46.66;95632.56;10248820;28;1906;-62
2023/05/06 22:39:14;;;;;;;;;;;;;;;21.14;46.52;95632.56;10240496;28;2024;-63
2023/05/06 22:44:14;;;;;;;;;;;;;;;21.13;46.63;95620.44;10246854;28;1861;-62
2023/05/06 22:49:14;;;;;;;;;;;;;;;21.12;46.34;95617.03;10232067;28;2055;-62
2023/05/06 22:54:15;;;;;;;;;;;;;;;21.12;46.37;95616.25;10244598;28;2055;-62
2023/05/06 22:59:15;;;;;;;;;;;;;;;21.13;46.45;95615.16;10241863;28;1957;-62
2023/05/06 23:04:15;;;;;;;;;;;;;;;21.10;46.43;95613.09;10235298;28;1924;-61
2023/05/06 23:09:16;;;;;;;;;;;;;;;21.10;46.29;95611.25;10235878;28;1928;-62
2023/05/06 23:14:16;;;;;;;;;;;;;;;21.10;46.18;95605.97;10241271;28;2360;-62
2023/05/06 23:19:20;;;;;;;;;;;;;;;21.06;46.42;95597.81;10238161;28;1876;-62
2023/05/06 23:24:20;;;;;;;;;;;;;;;21.10;46.32;95599.91;10235819;28;5149;-59
2023/05/06 23:29:20;;;;;;;;;;;;;;;21.10;46.14;95597.28;10240181;28;2083;-62
2023/05/06 23:34:20;;;;;;;;;;;;;;;21.08;46.15;95602.84;10240249;28;2017;-62
2023/05/06 23:39:21;;;;;;;;;;;;;;;21.08;46.36;95614.16;10235963;28;1968;-62
2023/05/06 23:44:22;;;;;;;;;;;;;;;21.08;46.09;95599.41;10236979;28;1908;-62
2023/05/06 23:49:22;;;;;;;;;;;;;;;21.06;46.33;95600.47;10241250;28;1933;-62
2023/05/06 23:54:23;;;;;;;;;;;;;;;21.08;46.12;95607.31;10241250;28;2115;-62
2023/05/06 23:59:23;;;;;;;;;;;;;;;21.08;46.41;95612.59;10236773;28;2014;-62
